createdAt,value
2023-03-15T00:02:31.507Z,0.20
2023-03-15T00:05:03.789Z,0.17
2023-03-15T00:07:35.562Z,0.20
2023-03-15T00:10:07.667Z,0.07
2023-03-15T00:12:42.603Z,0.30
2023-03-15T00:15:15.525Z,0.30
2023-03-15T00:17:47.339Z,0.40
2023-03-15T00:20:19.883Z,0.30
2023-03-15T00:22:51.613Z,0.23
2023-03-15T00:25:23.493Z,0.40
2023-03-15T00:27:55.408Z,0.30
2023-03-15T00:30:27.358Z,0.20
2023-03-15T00:32:59.252Z,0.30
2023-03-15T00:35:31.517Z,0.50
2023-03-15T00:38:04.704Z,0.30
2023-03-15T00:40:38.049Z,0.20
2023-03-15T00:43:09.938Z,0.20
2023-03-15T00:45:41.726Z,0.40
2023-03-15T00:48:13.432Z,0.10
2023-03-15T00:50:47.650Z,0.27
2023-03-15T00:53:19.406Z,0.50
2023-03-15T00:55:51.135Z,0.30
2023-03-15T00:58:23.957Z,0.40
2023-03-15T01:00:57.100Z,0.40
2023-03-15T01:03:28.873Z,0.40
2023-03-15T01:06:06.789Z,0.40
2023-03-15T01:08:39.002Z,0.40
2023-03-15T01:11:14.131Z,0.60
2023-03-15T01:13:46.763Z,0.70
2023-03-15T01:16:18.570Z,0.30
2023-03-15T01:18:53.574Z,0.50
2023-03-15T01:21:25.350Z,0.60
2023-03-15T01:23:57.069Z,0.33
2023-03-15T01:26:29.001Z,0.50
2023-03-15T01:29:00.796Z,0.70
2023-03-15T01:31:32.947Z,0.40
2023-03-15T01:34:05.214Z,0.63
2023-03-15T01:36:37.649Z,0.50
2023-03-15T01:39:09.612Z,0.67
2023-03-15T01:41:47.949Z,0.40
2023-03-15T01:44:20.445Z,0.40
2023-03-15T01:46:53.517Z,0.60
2023-03-15T01:49:31.950Z,0.53
2023-03-15T01:52:12.971Z,0.67
2023-03-15T01:55:05.413Z,0.80
2023-03-15T01:57:44.164Z,0.40
2023-03-15T02:00:19.822Z,0.60
2023-03-15T02:03:14.485Z,0.83
2023-03-15T02:05:54.648Z,0.40
2023-03-15T02:08:57.928Z,0.50
2023-03-15T02:11:31.554Z,0.50
2023-03-15T02:14:06.277Z,0.70
2023-03-15T02:16:40.566Z,0.50
2023-03-15T02:19:56.957Z,1.10
2023-03-15T02:22:52.743Z,0.80
2023-03-15T02:25:36.742Z,0.80
2023-03-15T02:28:11.863Z,0.80
2023-03-15T02:30:44.287Z,0.80
2023-03-15T02:33:33.694Z,0.93
2023-03-15T02:36:21.114Z,0.93
2023-03-15T02:38:53.997Z,0.67
2023-03-15T02:41:36.540Z,0.70
2023-03-15T02:44:16.182Z,0.70
2023-03-15T02:46:51.363Z,0.60
2023-03-15T02:49:30.451Z,0.77
2023-03-15T02:52:02.195Z,2.43
2023-03-15T02:54:36.836Z,1.00
2023-03-15T02:57:17.332Z,0.83
2023-03-15T02:59:51.073Z,1.00
2023-03-15T03:02:24.063Z,0.87
2023-03-15T03:04:55.765Z,0.60
2023-03-15T03:07:27.528Z,1.00
2023-03-15T03:10:06.433Z,0.80
2023-03-15T03:12:47.498Z,0.87
2023-03-15T03:15:20.810Z,0.93
2023-03-15T03:17:54.514Z,0.50
2023-03-15T03:20:28.020Z,1.03
2023-03-15T03:23:05.764Z,0.60
2023-03-15T03:25:37.556Z,0.57
2023-03-15T03:28:09.383Z,0.83
2023-03-15T03:30:41.103Z,0.80
2023-03-15T03:33:13.010Z,1.20
2023-03-15T03:35:44.887Z,1.00
2023-03-15T03:38:17.072Z,0.63
2023-03-15T03:40:54.578Z,1.00
2023-03-15T03:43:26.296Z,0.90
2023-03-15T03:45:58.120Z,0.87
2023-03-15T03:48:31.042Z,1.17
2023-03-15T03:51:02.804Z,0.87
2023-03-15T03:53:34.549Z,1.00
2023-03-15T03:56:07.833Z,1.00
2023-03-15T03:58:41.421Z,0.83
2023-03-15T04:01:19.653Z,1.00
2023-03-15T04:03:55.429Z,0.63
2023-03-15T04:06:28.791Z,0.70
2023-03-15T04:09:02.688Z,0.67
2023-03-15T04:11:45.050Z,0.80
2023-03-15T04:14:16.956Z,0.80
2023-03-15T04:16:50.918Z,1.07
2023-03-15T04:19:23.772Z,1.20
2023-03-15T04:21:56.900Z,1.33
2023-03-15T04:24:42.650Z,0.80
2023-03-15T04:27:21.879Z,1.17
2023-03-15T04:30:06.263Z,0.67
2023-03-15T04:32:59.204Z,0.90
2023-03-15T04:35:49.893Z,0.80
2023-03-15T04:38:40.519Z,1.00
2023-03-15T04:41:44.601Z,0.73
2023-03-15T04:44:27.165Z,0.60
2023-03-15T04:47:14.273Z,0.63
2023-03-15T04:50:23.032Z,0.97
2023-03-15T04:53:17.810Z,0.70
2023-03-15T04:56:09.780Z,0.90
2023-03-15T04:59:04.742Z,0.80
2023-03-15T05:01:54.928Z,1.00
2023-03-15T05:04:58.980Z,1.20
2023-03-15T05:07:59.611Z,1.00
2023-03-15T05:10:54.520Z,1.00
2023-03-15T05:13:51.821Z,0.77
2023-03-15T05:16:48.296Z,0.60
2023-03-15T05:19:36.901Z,1.00
2023-03-15T05:22:08.824Z,0.80
2023-03-15T05:24:59.192Z,0.83
2023-03-15T05:27:41.672Z,1.17
2023-03-15T05:30:28.630Z,1.00
2023-03-15T05:33:13.933Z,1.20
2023-03-15T05:35:56.418Z,1.63
2023-03-15T05:38:31.210Z,1.50
2023-03-15T05:41:21.485Z,1.33
2023-03-15T05:44:05.421Z,1.87
2023-03-15T05:46:37.233Z,1.60
2023-03-15T05:49:33.831Z,1.43
2023-03-15T05:52:16.648Z,1.73
2023-03-15T05:55:09.065Z,2.03
2023-03-15T05:57:59.034Z,1.60
2023-03-15T06:00:49.682Z,1.67
2023-03-15T06:03:36.991Z,1.37
2023-03-15T06:06:18.049Z,1.80
2023-03-15T06:08:49.942Z,1.93
2023-03-15T06:11:21.971Z,1.87
2023-03-15T06:13:54.534Z,2.00
2023-03-15T06:16:40.582Z,1.70
2023-03-15T06:19:13.653Z,2.27
2023-03-15T06:21:45.621Z,2.70
2023-03-15T06:24:25.721Z,2.27
2023-03-15T06:26:57.977Z,2.47
2023-03-15T06:29:30.346Z,2.27
2023-03-15T06:32:03.809Z,2.30
2023-03-15T06:34:36.286Z,2.27
2023-03-15T06:37:08.243Z,2.40
2023-03-15T06:39:40.492Z,2.10
2023-03-15T06:42:13.737Z,1.83
2023-03-15T06:44:45.627Z,2.10
2023-03-15T06:47:18.594Z,2.37
2023-03-15T06:49:50.613Z,2.13
2023-03-15T06:52:23.935Z,2.40
2023-03-15T06:54:55.844Z,2.87
2023-03-15T06:57:27.735Z,2.43
2023-03-15T06:59:59.441Z,2.03
2023-03-15T07:02:37.014Z,2.43
2023-03-15T07:05:09.431Z,2.03
2023-03-15T07:07:41.164Z,1.93
2023-03-15T07:10:12.982Z,2.27
2023-03-15T07:12:44.678Z,2.03
2023-03-15T07:15:17.504Z,1.50
2023-03-15T07:17:49.436Z,1.93
2023-03-15T07:20:21.284Z,1.80
2023-03-15T07:22:52.975Z,1.43
2023-03-15T07:25:25.906Z,2.07
2023-03-15T07:27:57.750Z,2.40
2023-03-15T07:30:29.676Z,1.80
2023-03-15T07:33:01.603Z,2.10
2023-03-15T07:35:33.497Z,2.07
2023-03-15T07:38:05.194Z,2.13
2023-03-15T07:40:37.085Z,1.83
2023-03-15T07:43:08.770Z,2.30
2023-03-15T07:45:40.658Z,2.47
2023-03-15T07:48:12.423Z,2.60
2023-03-15T07:50:45.690Z,2.90
2023-03-15T07:53:17.516Z,2.40
2023-03-15T07:55:49.429Z,2.67
2023-03-15T07:58:21.179Z,2.63
2023-03-15T08:00:56.232Z,2.73
2023-03-15T08:03:28.047Z,2.83
2023-03-15T08:05:59.806Z,2.63
2023-03-15T08:08:31.626Z,2.80
2023-03-15T08:11:05.101Z,2.50
2023-03-15T08:13:37.037Z,2.17
2023-03-15T08:16:08.845Z,2.80
2023-03-15T08:18:40.560Z,3.70
2023-03-15T08:21:12.313Z,2.60
2023-03-15T08:23:44.087Z,3.33
2023-03-15T08:26:15.848Z,2.33
2023-03-15T08:28:47.566Z,3.40
2023-03-15T08:31:19.339Z,3.53
2023-03-15T08:33:51.122Z,3.27
2023-03-15T08:36:23.004Z,2.83
2023-03-15T08:38:54.729Z,2.73
2023-03-15T08:41:26.494Z,2.77
2023-03-15T08:43:58.260Z,3.70
2023-03-15T08:46:30.221Z,2.90
2023-03-15T08:49:05.000Z,2.70
2023-03-15T08:51:36.859Z,3.17
2023-03-15T08:54:08.662Z,2.77
2023-03-15T08:56:41.488Z,2.80
2023-03-15T08:59:19.447Z,2.80
2023-03-15T09:01:57.239Z,3.07
2023-03-15T09:04:28.999Z,2.93
2023-03-15T09:07:01.654Z,2.80
2023-03-15T09:09:33.782Z,2.33
2023-03-15T09:12:05.755Z,2.93
2023-03-15T09:14:37.544Z,2.70
2023-03-15T09:17:09.821Z,2.00
2023-03-15T09:19:41.540Z,2.13
2023-03-15T09:22:17.203Z,2.07
2023-03-15T09:24:55.386Z,1.87
2023-03-15T09:27:29.399Z,1.40
2023-03-15T09:30:01.427Z,1.70
2023-03-15T09:32:36.541Z,1.60
2023-03-15T09:35:12.773Z,1.77
2023-03-15T09:37:44.960Z,1.40
2023-03-15T09:40:26.418Z,1.47
2023-03-15T09:43:15.014Z,1.37
2023-03-15T09:46:14.817Z,1.40
2023-03-15T09:49:14.014Z,1.10
2023-03-15T09:52:03.627Z,0.80
2023-03-15T09:54:46.865Z,1.20
2023-03-15T09:57:23.895Z,1.40
2023-03-15T09:59:56.787Z,1.10
2023-03-15T10:02:30.559Z,1.13
2023-03-15T10:05:21.296Z,1.40
2023-03-15T10:07:53.162Z,1.13
2023-03-15T10:10:33.101Z,1.43
2023-03-15T10:13:45.776Z,1.00
2023-03-15T10:16:39.701Z,1.20
2023-03-15T10:19:17.204Z,1.23
2023-03-15T10:21:56.223Z,1.40
2023-03-15T10:24:43.070Z,1.33
2023-03-15T10:27:26.369Z,1.30
2023-03-15T10:29:59.145Z,1.43
2023-03-15T10:32:38.475Z,1.07
2023-03-15T10:35:18.329Z,1.20
2023-03-15T10:37:50.122Z,1.40
2023-03-15T10:40:43.150Z,1.10
2023-03-15T10:43:23.333Z,1.37
2023-03-15T10:46:05.858Z,1.30
2023-03-15T10:49:09.168Z,1.40
2023-03-15T10:51:46.358Z,1.20
2023-03-15T10:54:21.041Z,0.90
2023-03-15T10:57:06.122Z,1.53
2023-03-15T10:59:37.880Z,0.90
2023-03-15T11:02:12.332Z,0.67
2023-03-15T11:04:49.168Z,1.03
2023-03-15T11:07:21.349Z,0.90
2023-03-15T11:09:58.821Z,1.60
2023-03-15T11:12:33.377Z,1.10
2023-03-15T11:15:16.694Z,1.00
2023-03-15T11:17:50.076Z,1.03
2023-03-15T11:20:37.274Z,0.90
2023-03-15T11:23:22.141Z,0.93
2023-03-15T11:25:55.069Z,1.23
2023-03-15T11:28:29.727Z,0.93
2023-03-15T11:31:04.673Z,0.77
2023-03-15T11:33:52.472Z,1.07
2023-03-15T11:36:30.027Z,0.93
2023-03-15T11:39:04.593Z,1.10
2023-03-15T11:41:48.628Z,1.20
2023-03-15T11:44:33.827Z,0.90
2023-03-15T11:47:11.698Z,1.00
2023-03-15T11:49:51.839Z,1.03
2023-03-15T11:52:26.628Z,0.90
2023-03-15T11:55:01.227Z,1.33
2023-03-15T11:57:44.864Z,1.50
2023-03-15T12:00:34.785Z,0.87
2023-03-15T12:03:46.859Z,1.63
2023-03-15T12:06:18.781Z,1.20
2023-03-15T12:08:55.145Z,0.60
2023-03-15T12:11:36.905Z,1.00
2023-03-15T12:14:38.114Z,1.20
2023-03-15T12:17:26.882Z,1.30
2023-03-15T12:20:35.399Z,1.00
2023-03-15T12:23:17.595Z,0.90
2023-03-15T12:26:05.420Z,1.10
2023-03-15T12:28:41.257Z,1.13
2023-03-15T12:31:14.413Z,0.77
2023-03-15T12:33:53.370Z,0.80
2023-03-15T12:36:39.460Z,0.83
2023-03-15T12:39:14.222Z,1.03
2023-03-15T12:41:51.357Z,1.10
2023-03-15T12:44:31.943Z,0.90
2023-03-15T12:47:11.525Z,0.73
2023-03-15T12:49:45.214Z,0.90
2023-03-15T12:52:16.923Z,1.00
2023-03-15T12:55:04.832Z,1.03
2023-03-15T12:57:39.867Z,0.80
2023-03-15T13:00:19.257Z,1.10
2023-03-15T13:03:01.541Z,1.10
2023-03-15T13:05:54.544Z,1.03
2023-03-15T13:09:00.932Z,0.63
2023-03-15T13:12:01.739Z,0.60
2023-03-15T13:14:50.389Z,0.87
2023-03-15T13:17:31.654Z,1.17
2023-03-15T13:20:25.211Z,0.67
2023-03-15T13:23:29.153Z,0.80
2023-03-15T13:26:25.634Z,1.20
2023-03-15T13:29:12.213Z,0.77
2023-03-15T13:31:45.700Z,0.60
2023-03-15T13:34:22.077Z,0.70
2023-03-15T13:36:57.158Z,1.03
2023-03-15T13:39:35.196Z,0.80
2023-03-15T13:42:18.628Z,0.80
2023-03-15T13:45:23.253Z,0.80
2023-03-15T13:47:54.976Z,0.90
2023-03-15T13:50:26.765Z,0.80
2023-03-15T13:52:58.617Z,0.90
2023-03-15T13:55:34.546Z,0.60
2023-03-15T13:58:08.576Z,0.80
2023-03-15T14:00:41.416Z,1.30
2023-03-15T14:03:21.562Z,0.93
2023-03-15T14:05:55.366Z,0.93
2023-03-15T14:08:37.034Z,0.90
2023-03-15T14:11:19.578Z,0.97
2023-03-15T14:14:01.813Z,1.20
2023-03-15T14:17:01.249Z,1.60
2023-03-15T14:19:36.782Z,1.20
2023-03-15T14:22:19.135Z,1.43
2023-03-15T14:24:52.298Z,1.17
2023-03-15T14:27:28.535Z,1.43
2023-03-15T14:30:03.045Z,0.87
2023-03-15T14:32:50.472Z,2.10
2023-03-15T14:35:41.664Z,1.10
2023-03-15T14:38:23.098Z,0.93
2023-03-15T14:41:10.089Z,0.40
2023-03-15T14:43:41.794Z,1.07
2023-03-15T14:46:13.695Z,0.50
2023-03-15T14:48:46.034Z,0.63
2023-03-15T14:51:20.996Z,0.50
2023-03-15T14:53:56.468Z,1.10
2023-03-15T14:56:28.290Z,0.60
2023-03-15T14:59:01.798Z,0.50
2023-03-15T15:01:35.324Z,0.70
2023-03-15T15:04:07.264Z,0.70
2023-03-15T15:06:39.106Z,0.80
2023-03-15T15:09:11.021Z,0.80
2023-03-15T15:11:42.868Z,0.80
2023-03-15T15:14:15.510Z,0.30
2023-03-15T15:16:49.020Z,0.70
2023-03-15T15:19:20.723Z,0.63
2023-03-15T15:21:52.433Z,0.60
2023-03-15T15:24:26.757Z,0.60
2023-03-15T15:26:58.507Z,0.93
2023-03-15T15:29:30.449Z,0.60
2023-03-15T15:32:02.234Z,0.57
2023-03-15T15:34:34.055Z,0.57
2023-03-15T15:37:05.988Z,0.50
2023-03-15T15:39:37.713Z,0.70
2023-03-15T15:42:10.867Z,0.63
2023-03-15T15:44:42.629Z,0.80
2023-03-15T15:47:14.364Z,0.47
2023-03-15T15:49:46.074Z,0.90
2023-03-15T15:52:17.858Z,0.40
2023-03-15T15:54:49.621Z,0.20
2023-03-15T15:57:22.168Z,0.57
2023-03-15T15:59:53.928Z,0.60
2023-03-15T16:02:25.762Z,0.50
2023-03-15T16:04:57.607Z,0.73
2023-03-15T16:07:29.597Z,0.30
2023-03-15T16:10:01.977Z,0.60
2023-03-15T16:12:35.175Z,0.53
2023-03-15T16:15:07.476Z,0.30
2023-03-15T16:17:39.208Z,0.60
2023-03-15T16:20:12.442Z,0.80
2023-03-15T16:22:49.518Z,0.70
2023-03-15T16:25:27.025Z,0.40
2023-03-15T16:28:00.606Z,0.50
2023-03-15T16:30:33.452Z,0.80
2023-03-15T16:33:14.370Z,0.77
2023-03-15T16:35:49.919Z,0.60
2023-03-15T16:38:24.660Z,0.97
2023-03-15T16:40:56.554Z,0.80
2023-03-15T16:43:28.737Z,0.73
2023-03-15T16:46:00.813Z,0.83
2023-03-15T16:48:32.681Z,0.80
2023-03-15T16:51:05.538Z,0.90
2023-03-15T16:53:37.861Z,0.63
2023-03-15T16:56:11.866Z,1.00
2023-03-15T16:58:44.159Z,0.90
2023-03-15T17:01:15.869Z,0.70
2023-03-15T17:03:47.625Z,0.80
2023-03-15T17:06:23.204Z,0.90
2023-03-15T17:09:10.400Z,0.70
2023-03-15T17:11:43.974Z,0.80
2023-03-15T17:14:25.519Z,0.70
2023-03-15T17:16:57.449Z,1.43
2023-03-15T17:19:29.267Z,1.27
2023-03-15T17:22:01.141Z,0.90
2023-03-15T17:24:33.082Z,0.70
2023-03-15T17:27:05.195Z,1.13
2023-03-15T17:29:36.910Z,0.80
2023-03-15T17:32:12.132Z,1.20
2023-03-15T17:34:47.119Z,0.90
2023-03-15T17:37:18.915Z,0.90
2023-03-15T17:39:50.767Z,1.13
2023-03-15T17:42:22.479Z,1.57
2023-03-15T17:44:54.199Z,1.37
2023-03-15T17:47:25.895Z,1.67
2023-03-15T17:49:57.966Z,1.10
2023-03-15T17:52:29.667Z,1.40
2023-03-15T17:55:01.434Z,1.20
2023-03-15T17:57:33.868Z,1.20
2023-03-15T18:00:07.548Z,1.80
2023-03-15T18:02:49.824Z,3.10
2023-03-15T18:05:29.239Z,2.20
2023-03-15T18:08:03.858Z,1.97
2023-03-15T18:10:39.569Z,1.53
2023-03-15T18:13:14.156Z,1.60
2023-03-15T18:15:46.633Z,1.00
2023-03-15T18:18:18.586Z,1.83
2023-03-15T18:20:50.516Z,1.50
2023-03-15T18:23:22.244Z,2.53
2023-03-15T18:25:53.974Z,2.50
2023-03-15T18:28:25.743Z,2.83
2023-03-15T18:30:57.472Z,2.40
2023-03-15T18:33:31.300Z,2.53
2023-03-15T18:36:03.175Z,2.53
2023-03-15T18:38:35.156Z,1.83
2023-03-15T18:41:22.574Z,2.13
2023-03-15T18:43:54.348Z,2.30
2023-03-15T18:46:26.281Z,3.17
2023-03-15T18:48:58.164Z,4.80
2023-03-15T18:51:29.909Z,3.13
2023-03-15T18:54:01.591Z,2.50
2023-03-15T18:56:34.713Z,2.70
2023-03-15T18:59:06.452Z,2.37
2023-03-15T19:01:38.334Z,2.13
2023-03-15T19:04:11.083Z,2.20
2023-03-15T19:06:42.882Z,2.20
2023-03-15T19:09:14.617Z,1.80
2023-03-15T19:11:46.325Z,1.90
2023-03-15T19:14:18.370Z,2.57
2023-03-15T19:16:50.146Z,2.00
2023-03-15T19:19:21.943Z,2.07
2023-03-15T19:21:55.296Z,2.40
2023-03-15T19:24:27.110Z,2.00
2023-03-15T19:26:58.898Z,2.63
2023-03-15T19:29:30.617Z,2.10
2023-03-15T19:32:03.938Z,1.80
2023-03-15T19:34:35.665Z,2.40
2023-03-15T19:37:07.516Z,1.87
2023-03-15T19:39:39.507Z,1.20
2023-03-15T19:42:11.440Z,1.33
2023-03-15T19:44:43.669Z,1.90
2023-03-15T19:47:15.398Z,2.03
2023-03-15T19:49:47.382Z,1.67
2023-03-15T19:52:19.124Z,2.20
2023-03-15T19:54:51.724Z,1.83
2023-03-15T19:57:23.569Z,2.17
2023-03-15T19:59:55.410Z,2.10
2023-03-15T20:02:27.116Z,2.10
2023-03-15T20:04:58.818Z,1.87
2023-03-15T20:07:30.520Z,1.93
2023-03-15T20:10:02.333Z,2.00
2023-03-15T20:12:35.684Z,2.60
2023-03-15T20:15:10.038Z,1.77
2023-03-15T20:17:42.513Z,2.67
2023-03-15T20:20:14.763Z,1.83
2023-03-15T20:22:46.889Z,2.40
2023-03-15T20:25:20.178Z,2.37
2023-03-15T20:27:51.936Z,2.37
2023-03-15T20:30:24.211Z,5.33
2023-03-15T20:32:56.652Z,4.60
2023-03-15T20:35:28.407Z,4.23
2023-03-15T20:38:06.555Z,2.77
2023-03-15T20:40:38.547Z,3.33
2023-03-15T20:43:11.380Z,2.30
2023-03-15T20:45:44.092Z,2.70
2023-03-15T20:48:15.786Z,2.80
2023-03-15T20:50:47.784Z,3.40
2023-03-15T20:53:20.897Z,4.03
2023-03-15T20:55:52.656Z,3.70
2023-03-15T20:58:24.579Z,3.20
2023-03-15T21:01:04.632Z,4.17
2023-03-15T21:03:37.154Z,3.83
2023-03-15T21:06:09.341Z,3.83
2023-03-15T21:08:42.313Z,3.93
2023-03-15T21:11:14.162Z,4.17
2023-03-15T21:13:46.110Z,4.00
2023-03-15T21:16:18.241Z,3.60
2023-03-15T21:18:53.015Z,3.57
2023-03-15T21:21:24.788Z,3.07
2023-03-15T21:23:56.521Z,2.90
2023-03-15T21:26:28.238Z,3.50
2023-03-15T21:29:00.123Z,3.33
2023-03-15T21:31:31.917Z,3.50
2023-03-15T21:34:05.014Z,3.70
2023-03-15T21:36:36.733Z,3.33
2023-03-15T21:39:08.529Z,4.03
2023-03-15T21:41:40.420Z,4.40
2023-03-15T21:44:12.187Z,3.80
2023-03-15T21:46:43.989Z,4.00
2023-03-15T21:49:15.902Z,3.07
2023-03-15T21:51:47.620Z,3.70
2023-03-15T21:54:19.409Z,4.50
2023-03-15T21:56:52.995Z,3.47
2023-03-15T21:59:28.134Z,3.13
2023-03-15T22:02:01.621Z,2.83
2023-03-15T22:04:33.912Z,3.50
2023-03-15T22:07:06.006Z,2.70
2023-03-15T22:09:38.062Z,3.00
2023-03-15T22:12:10.358Z,2.90
2023-03-15T22:14:42.213Z,2.83
2023-03-15T22:17:13.989Z,3.37
2023-03-15T22:19:45.813Z,3.30
2023-03-15T22:22:17.599Z,3.83
2023-03-15T22:24:49.466Z,3.27
2023-03-15T22:27:21.530Z,3.10
2023-03-15T22:29:53.330Z,3.53
2023-03-15T22:32:25.078Z,3.57
2023-03-15T22:34:57.110Z,3.37
2023-03-15T22:37:28.895Z,3.57
2023-03-15T22:40:00.927Z,3.80
2023-03-15T22:42:32.779Z,3.60
2023-03-15T22:45:05.505Z,3.03
2023-03-15T22:47:37.209Z,3.63
2023-03-15T22:50:11.517Z,2.73
2023-03-15T22:52:43.705Z,2.60
2023-03-15T22:55:15.431Z,2.13
2023-03-15T22:57:47.851Z,2.50
2023-03-15T23:00:21.945Z,2.37
2023-03-15T23:02:53.670Z,3.17
2023-03-15T23:05:25.376Z,2.60
2023-03-15T23:07:57.067Z,2.30
2023-03-15T23:10:28.871Z,2.27
2023-03-15T23:13:00.971Z,2.80
2023-03-15T23:15:33.045Z,2.57
2023-03-15T23:18:05.500Z,2.03
2023-03-15T23:20:37.637Z,2.33
2023-03-15T23:23:09.444Z,2.20
2023-03-15T23:25:41.411Z,2.50
2023-03-15T23:28:13.902Z,2.37
2023-03-15T23:30:45.805Z,1.77
2023-03-15T23:33:17.915Z,2.23
2023-03-15T23:35:49.922Z,2.00
2023-03-15T23:38:21.927Z,2.63
2023-03-15T23:40:59.028Z,2.63
2023-03-15T23:43:31.507Z,2.87
2023-03-15T23:46:05.007Z,2.53
2023-03-15T23:48:37.051Z,2.40
2023-03-15T23:51:09.002Z,2.37
2023-03-15T23:53:40.832Z,2.53
2023-03-15T23:56:12.555Z,2.53
2023-03-15T23:58:44.251Z,2.87
